Time;durP1;ratioP1;P1;durP2;ratioP2;P2;SDS_P1;SDS_P2;PMS_P1;PMS_P2;Temp;Humidity;BMP_temperature;BMP_pressure;BME280_temperature;BME280_humidity;BME280_pressure;Samples;Min_cycle;Max_cycle;Signal;HPM_P1;HPM_P2
2023/03/15 00:01:34;;;;;;;2.33;0.60;;;;;;;6.34;71.84;101293.44;5103086;28;20570;-44
2023/03/15 00:04:00;;;;;;;5.05;0.90;;;;;;;6.50;71.43;101295.78;5103649;27;20036;-49
2023/03/15 00:06:25;;;;;;;5.43;1.00;;;;;;;6.60;70.97;101293.50;5100634;28;20123;-43
2023/03/15 00:08:50;;;;;;;2.45;1.05;;;;;;;6.51;71.94;101287.19;5102820;27;20032;-42
2023/03/15 00:11:17;;;;;;;5.80;0.80;;;;;;;6.68;71.05;101285.19;5099390;27;20051;-45
2023/03/15 00:13:43;;;;;;;5.30;0.90;;;;;;;6.69;70.79;101286.06;5103722;28;20031;-43
2023/03/15 00:16:09;;;;;;;3.67;0.70;;;;;;;6.73;69.87;101283.63;5100243;28;20038;-43
2023/03/15 00:18:35;;;;;;;5.63;0.80;;;;;;;6.62;70.68;101291.84;5103984;28;20032;-43
2023/03/15 00:21:00;;;;;;;4.32;0.80;;;;;;;6.61;70.73;101296.16;5100542;28;20080;-44
2023/03/15 00:23:26;;;;;;;5.75;0.80;;;;;;;6.67;69.90;101292.91;5105662;27;20034;-44
2023/03/15 00:25:52;;;;;;;4.93;0.70;;;;;;;6.36;71.38;101296.09;5108050;28;20039;-46
2023/03/15 00:28:18;;;;;;;3.45;0.90;;;;;;;6.31;71.06;101297.63;5099473;28;20119;-44
2023/03/15 00:30:44;;;;;;;3.70;0.73;;;;;;;6.63;69.69;101307.47;5102310;28;20127;-44
2023/03/15 00:33:13;;;;;;;3.47;0.95;;;;;;;6.39;70.13;101311.75;5099388;28;20031;-45
2023/03/15 00:35:41;;;;;;;4.95;0.90;;;;;;;6.61;69.82;101316.00;5103437;27;20066;-44
2023/03/15 00:38:07;;;;;;;3.25;0.90;;;;;;;6.56;70.33;101320.13;5099875;28;20040;-45
2023/03/15 00:40:32;;;;;;;4.20;1.00;;;;;;;6.76;69.46;101308.78;5104338;28;20085;-44
2023/03/15 00:42:57;;;;;;;3.67;0.68;;;;;;;6.95;68.70;101316.38;5105348;28;20023;-46
2023/03/15 00:45:23;;;;;;;2.53;0.80;;;;;;;6.85;68.58;101322.06;5099808;28;20096;-44
2023/03/15 00:47:51;;;;;;;3.92;0.70;;;;;;;6.84;68.52;101321.16;5103468;28;20091;-43
2023/03/15 00:50:16;;;;;;;3.45;0.90;;;;;;;6.91;67.89;101317.09;5099254;28;20062;-43
2023/03/15 00:52:42;;;;;;;4.25;1.00;;;;;;;6.92;67.62;101317.16;5103131;28;20067;-45
2023/03/15 00:55:12;;;;;;;3.58;0.82;;;;;;;6.77;68.39;101326.94;5099660;28;20061;-45
2023/03/15 00:57:39;;;;;;;2.83;0.70;;;;;;;6.79;68.90;101321.84;5103132;28;20085;-44
2023/03/15 01:00:10;;;;;;;3.40;0.90;;;;;;;6.92;67.77;101311.97;5099667;28;20546;-45
2023/03/15 01:02:36;;;;;;;3.58;0.88;;;;;;;6.88;67.47;101317.00;5103307;28;20040;-44
2023/03/15 01:05:05;;;;;;;2.63;0.98;;;;;;;6.76;67.74;101337.28;5103398;28;20088;-43
2023/03/15 01:07:34;;;;;;;6.50;0.90;;;;;;;6.74;67.65;101331.16;5099676;28;20093;-48
2023/03/15 01:10:01;;;;;;;3.65;0.90;;;;;;;6.73;67.43;101331.97;5104247;28;20024;-45
2023/03/15 01:12:31;;;;;;;3.58;1.00;;;;;;;6.51;68.31;101338.09;5101105;28;20055;-43
2023/03/15 01:14:57;;;;;;;6.13;1.27;;;;;;;6.30;70.21;101347.63;5105063;28;20043;-43
2023/03/15 01:17:22;;;;;;;5.72;0.95;;;;;;;6.30;69.85;101348.53;5101423;28;22556;-43
2023/03/15 01:19:47;;;;;;;5.72;1.00;;;;;;;6.36;70.01;101347.88;5107770;28;20032;-48
2023/03/15 01:22:13;;;;;;;3.35;1.30;;;;;;;6.36;70.05;101348.75;5102809;28;20027;-47
2023/03/15 01:24:38;;;;;;;5.55;1.10;;;;;;;6.26;70.59;101357.00;5103819;28;20409;-45
2023/03/15 01:27:03;;;;;;;5.50;1.10;;;;;;;6.38;69.99;101357.47;5099451;28;20032;-45
2023/03/15 01:29:29;;;;;;;3.15;1.02;;;;;;;6.36;70.04;101364.28;5103769;28;20031;-43
2023/03/15 01:31:54;;;;;;;3.30;1.02;;;;;;;6.39;68.89;101367.03;5104036;28;20035;-43
2023/03/15 01:34:20;;;;;;;2.65;1.00;;;;;;;6.35;68.76;101370.28;5104834;27;20044;-45
2023/03/15 01:36:49;;;;;;;3.42;0.90;;;;;;;6.37;68.53;101376.44;5107636;27;20038;-43
2023/03/15 01:39:14;;;;;;;2.67;0.80;;;;;;;6.33;69.11;101384.91;5102592;28;20044;-44
2023/03/15 01:41:39;;;;;;;2.45;0.98;;;;;;;6.35;69.58;101385.84;5107327;27;20536;-46
2023/03/15 01:44:08;;;;;;;3.17;0.93;;;;;;;6.46;69.51;101384.53;5102918;28;20036;-44
2023/03/15 01:46:33;;;;;;;6.70;0.90;;;;;;;6.57;69.23;101386.66;5106912;27;20548;-43
2023/03/15 01:49:14;;;;;;;5.82;0.90;;;;;;;6.59;69.07;101390.19;5107925;28;20035;-47
2023/03/15 01:51:49;;;;;;;2.95;0.80;;;;;;;6.24;70.97;101402.66;5100863;27;20032;-42
2023/03/15 01:54:23;;;;;;;2.80;0.70;;;;;;;6.50;69.68;101401.09;5102815;27;20039;-44
2023/03/15 01:56:54;;;;;;;2.67;0.80;;;;;;;6.47;70.20;101403.53;5108955;27;20122;-47
2023/03/15 01:59:26;;;;;;;2.25;0.80;;;;;;;6.53;69.99;101410.69;5106454;27;24034;-46
2023/03/15 02:01:53;;;;;;;4.05;0.70;;;;;;;6.60;69.99;101403.19;5106087;27;20099;-42
2023/03/15 02:04:24;;;;;;;4.22;0.90;;;;;;;6.53;70.29;101405.50;5102262;27;20076;-43
2023/03/15 02:06:58;;;;;;;6.20;0.98;;;;;;;6.53;70.31;101403.78;5106098;27;20386;-45
2023/03/15 02:09:30;;;;;;;2.08;0.73;;;;;;;6.58;69.05;101403.97;5102154;27;20031;-43
2023/03/15 02:11:56;;;;;;;3.95;0.80;;;;;;;6.61;68.99;101412.72;5106230;27;20038;-45
2023/03/15 02:14:22;;;;;;;5.75;0.98;;;;;;;6.43;69.81;101420.69;5102430;27;20027;-43
2023/03/15 02:16:48;;;;;;;3.22;0.82;;;;;;;6.40;69.76;101412.78;5106219;27;20038;-44
2023/03/15 02:19:44;;;;;;;7.35;0.90;;;;;;;6.28;70.68;101427.00;5101674;27;20201;-43
2023/03/15 02:22:30;;;;;;;1.88;0.88;;;;;;;6.42;69.39;101421.50;5080974;27;20262;-44
2023/03/15 02:25:05;;;;;;;1.70;0.75;;;;;;;6.34;69.77;101428.09;5085781;27;20097;-44
2023/03/15 02:27:33;;;;;;;3.80;0.90;;;;;;;6.35;69.68;101434.16;5097276;27;20497;-43
2023/03/15 02:30:02;;;;;;;8.57;0.90;;;;;;;6.23;70.44;101431.97;5106232;27;20032;-46
2023/03/15 02:32:27;;;;;;;2.67;0.90;;;;;;;6.27;70.06;101433.88;5101585;27;20490;-43
2023/03/15 02:34:53;;;;;;;2.83;0.90;;;;;;;6.28;69.54;101432.16;5105977;27;20119;-45
2023/03/15 02:37:18;;;;;;;3.65;0.80;;;;;;;6.28;69.70;101437.34;5102036;27;20031;-43
2023/03/15 02:39:43;;;;;;;4.28;0.82;;;;;;;6.15;69.97;101435.97;5106179;27;20065;-44
2023/03/15 02:42:09;;;;;;;3.92;0.80;;;;;;;6.21;69.85;101438.81;5101892;27;20035;-43
2023/03/15 02:44:38;;;;;;;5.03;0.90;;;;;;;6.18;69.14;101445.56;5106707;28;20378;-43
2023/03/15 02:47:11;;;;;;;2.83;0.70;;;;;;;6.16;68.92;101453.25;5102108;27;20036;-46
2023/03/15 02:49:41;;;;;;;1.85;0.63;;;;;;;6.16;68.81;101449.81;5106039;28;20050;-44
2023/03/15 02:52:07;;;;;;;2.30;0.90;;;;;;;6.13;68.79;101453.13;5102092;28;20028;-43
2023/03/15 02:54:33;;;;;;;6.03;1.10;;;;;;;6.14;68.76;101454.03;5105026;28;20084;-43
2023/03/15 02:56:59;;;;;;;2.97;0.90;;;;;;;6.14;69.19;101459.19;5109545;28;20027;-45
2023/03/15 02:59:25;;;;;;;5.13;0.95;;;;;;;6.17;68.75;101467.06;5108620;27;20398;-45
2023/03/15 03:01:50;;;;;;;4.15;1.10;;;;;;;6.16;69.83;101468.78;5111343;27;20044;-45
2023/03/15 03:04:15;;;;;;;4.43;0.90;;;;;;;6.17;70.27;101482.59;5104513;27;20023;-42
2023/03/15 03:06:42;;;;;;;5.95;1.00;;;;;;;6.22;71.20;101486.28;5108491;28;20138;-44
2023/03/15 03:09:08;;;;;;;4.82;1.10;;;;;;;6.30;71.74;101492.66;5101812;28;20039;-44
2023/03/15 03:11:33;;;;;;;6.25;1.02;;;;;;;6.23;71.94;101506.16;5105462;27;20040;-43
2023/03/15 03:13:59;;;;;;;6.00;1.00;;;;;;;6.30;72.33;101503.88;5105792;28;20028;-45
2023/03/15 03:16:24;;;;;;;4.82;0.82;;;;;;;6.05;71.50;101511.47;5101228;28;20500;-43
2023/03/15 03:18:50;;;;;;;4.50;1.00;;;;;;;5.61;71.84;101532.84;5108536;27;20027;-44
2023/03/15 03:21:15;;;;;;;5.50;1.05;;;;;;;5.48;71.43;101530.53;5101678;27;20378;-45
2023/03/15 03:23:40;;;;;;;2.67;0.80;;;;;;;5.88;70.68;101526.28;5104470;27;20036;-44
2023/03/15 03:26:15;;;;;;;4.85;0.90;;;;;;;6.20;68.97;101525.06;5101130;28;20031;-44
2023/03/15 03:28:41;;;;;;;3.13;0.80;;;;;;;6.39;68.28;101521.53;5104679;27;20040;-45
2023/03/15 03:31:15;;;;;;;2.38;0.70;;;;;;;6.28;67.93;101521.06;5101665;27;20024;-43
2023/03/15 03:33:40;;;;;;;3.10;0.77;;;;;;;6.45;67.21;101520.06;5105706;28;20485;-43
2023/03/15 03:36:06;;;;;;;4.72;0.85;;;;;;;6.34;66.54;101521.31;5101996;27;20035;-45
2023/03/15 03:38:31;;;;;;;3.47;0.95;;;;;;;6.28;66.93;101527.97;5105780;27;20062;-43
2023/03/15 03:40:56;;;;;;;0.95;0.70;;;;;;;6.22;67.00;101528.56;5105646;28;20027;-46
2023/03/15 03:43:22;;;;;;;4.45;0.70;;;;;;;6.14;67.45;101534.28;5103993;27;20027;-43
2023/03/15 03:45:47;;;;;;;4.47;0.90;;;;;;;6.06;67.29;101531.34;5106906;27;20040;-43
2023/03/15 03:48:12;;;;;;;2.63;0.75;;;;;;;5.98;67.28;101530.13;5102107;28;20119;-44
2023/03/15 03:50:37;;;;;;;1.98;0.80;;;;;;;5.97;67.13;101537.06;5108852;27;20042;-42
2023/03/15 03:53:03;;;;;;;2.90;0.90;;;;;;;5.93;67.10;101536.84;5103288;27;20114;-50
2023/03/15 03:55:28;;;;;;;1.55;0.60;;;;;;;5.86;67.53;101548.59;5104505;27;20327;-42
2023/03/15 03:57:53;;;;;;;3.55;0.77;;;;;;;5.84;67.43;101559.72;5104438;28;20629;-44
2023/03/15 04:00:20;;;;;;;3.28;0.80;;;;;;;5.79;67.49;101558.63;5100910;27;21832;-45
2023/03/15 04:02:45;;;;;;;5.25;0.90;;;;;;;5.77;67.73;101573.19;5103581;27;20028;-44
2023/03/15 04:05:12;;;;;;;2.80;0.80;;;;;;;5.69;67.70;101578.03;5100532;27;20160;-44
2023/03/15 04:07:38;;;;;;;3.50;0.90;;;;;;;5.72;67.84;101573.00;5104093;27;20043;-46
2023/03/15 04:10:04;;;;;;;3.33;0.82;;;;;;;5.75;68.11;101572.22;5101043;28;20478;-44
2023/03/15 04:12:30;;;;;;;3.78;1.10;;;;;;;5.82;68.29;101574.28;5105051;27;20554;-45
2023/03/15 04:14:55;;;;;;;3.10;0.85;;;;;;;5.86;68.61;101584.81;5105252;28;20031;-46
2023/03/15 04:17:20;;;;;;;2.45;0.77;;;;;;;5.93;68.96;101580.81;5102279;28;20043;-44
2023/03/15 04:19:46;;;;;;;3.35;0.60;;;;;;;6.05;68.95;101594.28;5106266;28;20084;-46
2023/03/15 04:22:14;;;;;;;2.85;0.93;;;;;;;6.13;69.27;101600.69;5102487;28;20073;-44
2023/03/15 04:24:40;;;;;;;1.70;0.90;;;;;;;6.11;69.67;101599.72;5105821;28;20080;-44
2023/03/15 04:27:05;;;;;;;3.25;1.00;;;;;;;6.02;70.07;101607.13;5102799;27;20122;-43
2023/03/15 04:29:30;;;;;;;1.80;1.20;;;;;;;6.18;69.82;101606.06;5104877;28;20039;-43
2023/03/15 04:32:00;;;;;;;4.18;1.00;;;;;;;6.23;69.51;101609.72;5106120;28;20031;-44
2023/03/15 04:34:27;;;;;;;3.85;1.10;;;;;;;6.15;70.14;101613.72;5103484;28;20047;-44
2023/03/15 04:36:53;;;;;;;3.53;1.23;;;;;;;6.30;70.04;101609.16;5100041;27;20428;-43
2023/03/15 04:39:19;;;;;;;3.38;1.20;;;;;;;6.35;70.00;101612.84;5085065;27;20035;-44
2023/03/15 04:41:44;;;;;;;2.60;1.10;;;;;;;6.42;69.64;101614.88;5097680;27;20036;-43
2023/03/15 04:44:10;;;;;;;3.70;1.30;;;;;;;6.37;69.21;101619.84;5086009;28;20063;-43
2023/03/15 04:46:35;;;;;;;3.55;1.30;;;;;;;6.25;69.34;101615.88;5088942;28;20041;-47
2023/03/15 04:49:02;;;;;;;4.68;1.20;;;;;;;6.19;68.99;101623.38;5083407;28;20131;-43
2023/03/15 04:51:27;;;;;;;3.50;1.60;;;;;;;6.09;68.22;101624.69;5094073;27;20034;-46
2023/03/15 04:53:53;;;;;;;5.30;2.03;;;;;;;5.98;69.04;101623.31;5109537;28;20032;-44
2023/03/15 04:56:18;;;;;;;5.38;2.00;;;;;;;5.94;68.74;101624.91;5108484;28;20114;-45
2023/03/15 04:58:43;;;;;;;6.10;1.92;;;;;;;5.90;68.38;101635.06;5111883;28;20035;-42
2023/03/15 05:01:10;;;;;;;7.90;1.73;;;;;;;5.70;69.06;101641.88;5105557;28;20034;-44
2023/03/15 05:03:35;;;;;;;2.97;1.50;;;;;;;5.71;69.31;101639.38;5107833;28;20028;-43
2023/03/15 05:06:06;;;;;;;4.75;1.60;;;;;;;5.77;68.56;101635.28;5105692;28;20031;-44
2023/03/15 05:08:33;;;;;;;5.55;1.48;;;;;;;5.62;69.79;101640.66;5105675;27;20058;-44
2023/03/15 05:10:59;;;;;;;5.68;1.45;;;;;;;5.67;68.79;101645.22;5111305;28;20027;-42
2023/03/15 05:13:24;;;;;;;6.40;1.38;;;;;;;5.65;68.92;101656.31;5106970;27;20034;-44
2023/03/15 05:15:50;;;;;;;4.57;1.40;;;;;;;5.61;68.61;101657.00;5110159;27;20058;-43
2023/03/15 05:18:15;;;;;;;2.70;1.23;;;;;;;5.58;68.85;101649.09;5106586;28;20034;-43
2023/03/15 05:20:40;;;;;;;4.85;1.33;;;;;;;5.54;68.70;101650.66;5110178;27;20039;-48
2023/03/15 05:23:05;;;;;;;4.32;1.55;;;;;;;5.27;70.53;101664.88;5106980;28;20028;-46
2023/03/15 05:25:31;;;;;;;7.68;1.50;;;;;;;5.50;69.09;101660.78;5110072;27;20039;-46
2023/03/15 05:27:56;;;;;;;5.18;1.42;;;;;;;5.31;70.24;101665.09;5108152;27;20096;-43
2023/03/15 05:30:21;;;;;;;4.20;1.40;;;;;;;5.51;69.61;101665.13;5104754;27;20039;-44
2023/03/15 05:32:47;;;;;;;5.07;1.50;;;;;;;5.54;69.57;101661.00;5110327;27;20069;-45
2023/03/15 05:35:12;;;;;;;6.05;1.40;;;;;;;5.56;69.46;101668.81;5102450;27;20028;-45
2023/03/15 05:37:38;;;;;;;5.43;1.50;;;;;;;5.55;69.32;101667.06;5107322;28;20081;-43
2023/03/15 05:40:07;;;;;;;3.47;1.40;;;;;;;5.44;69.85;101674.31;5103951;27;20216;-49
2023/03/15 05:42:33;;;;;;;4.15;1.60;;;;;;;5.46;68.89;101680.44;5108469;27;20489;-47
2023/03/15 05:44:58;;;;;;;8.00;1.70;;;;;;;5.42;69.21;101681.13;5109090;28;20495;-47
2023/03/15 05:47:23;;;;;;;4.63;1.75;;;;;;;5.42;68.83;101685.41;5105742;28;20047;-43
2023/03/15 05:49:49;;;;;;;6.38;1.77;;;;;;;5.38;68.37;101693.81;5109090;28;20032;-43
2023/03/15 05:52:15;;;;;;;25.98;13.93;;;;;;;5.19;70.14;101703.28;5106401;27;20034;-45
2023/03/15 05:54:41;;;;;;;26.98;15.70;;;;;;;5.24;69.83;101701.84;5110617;27;20412;-45
2023/03/15 05:57:06;;;;;;;23.23;13.18;;;;;;;5.26;69.02;101713.13;5106665;27;20028;-44
2023/03/15 05:59:32;;;;;;;15.45;8.55;;;;;;;5.25;68.99;101716.50;5110186;27;20035;-43
2023/03/15 06:01:57;;;;;;;12.07;6.95;;;;;;;5.22;68.98;101715.50;5110217;28;20034;-42
2023/03/15 06:04:23;;;;;;;14.70;5.00;;;;;;;5.07;70.21;101725.06;5103142;28;20430;-47
2023/03/15 06:06:49;;;;;;;7.30;2.33;;;;;;;5.11;70.48;101722.72;5105864;28;20031;-46
2023/03/15 06:09:14;;;;;;;10.50;2.50;;;;;;;5.10;70.06;101739.03;5102715;27;20028;-45
2023/03/15 06:11:39;;;;;;;8.25;2.20;;;;;;;5.23;70.30;101740.53;5108104;27;20043;-45
2023/03/15 06:14:05;;;;;;;9.73;2.05;;;;;;;5.30;70.06;101745.19;5102464;27;20404;-44
2023/03/15 06:16:30;;;;;;;11.00;1.80;;;;;;;5.30;69.87;101747.78;5107696;28;20500;-45
2023/03/15 06:18:55;;;;;;;6.30;1.67;;;;;;;5.35;69.42;101750.56;5106799;27;20043;-47
2023/03/15 06:21:21;;;;;;;5.68;1.90;;;;;;;5.37;69.63;101754.13;5104536;27;20059;-44
2023/03/15 06:23:46;;;;;;;6.15;1.75;;;;;;;5.40;69.43;101768.09;5107723;27;20051;-44
2023/03/15 06:26:13;;;;;;;7.22;1.80;;;;;;;5.43;69.74;101763.03;5103471;27;20107;-44
2023/03/15 06:28:39;;;;;;;7.40;1.70;;;;;;;5.48;70.14;101774.53;5109512;28;20055;-45
2023/03/15 06:31:09;;;;;;;6.10;1.70;;;;;;;5.66;70.51;101779.69;5105535;28;20038;-45
2023/03/15 06:33:34;;;;;;;5.28;1.65;;;;;;;5.98;70.79;101776.91;5110443;27;20035;-44
2023/03/15 06:36:00;;;;;;;8.77;1.75;;;;;;;6.16;70.40;101783.78;5109084;27;20042;-45
2023/03/15 06:38:25;;;;;;;3.20;1.67;;;;;;;6.37;69.43;101783.03;5108198;28;20038;-45
2023/03/15 06:40:50;;;;;;;7.18;1.92;;;;;;;6.63;69.47;101781.59;5110380;27;20039;-50
2023/03/15 06:43:18;;;;;;;6.45;1.73;;;;;;;6.92;68.46;101785.41;5104898;27;20111;-43
2023/03/15 06:45:44;;;;;;;8.38;2.03;;;;;;;7.31;66.44;101787.09;5107955;28;20812;-46
2023/03/15 06:48:09;;;;;;;4.05;2.00;;;;;;;7.68;65.32;101796.38;5102818;27;20119;-44
2023/03/15 06:50:35;;;;;;;10.07;2.35;;;;;;;8.31;65.71;101791.88;5106440;27;20111;-46
2023/03/15 06:53:01;;;;;;;9.35;2.13;;;;;;;8.54;62.33;101799.69;5107677;27;20031;-44
2023/03/15 06:55:26;;;;;;;7.50;2.30;;;;;;;8.26;62.16;101811.56;5105306;28;20449;-44
2023/03/15 06:57:52;;;;;;;6.22;2.20;;;;;;;8.73;61.95;101815.94;5110205;28;20077;-48
2023/03/15 07:00:17;;;;;;;6.75;2.10;;;;;;;9.27;60.38;101804.84;5106316;27;20043;-48
2023/03/15 07:02:43;;;;;;;8.00;2.25;;;;;;;9.43;59.77;101803.63;5109385;28;20041;-43
2023/03/15 07:05:08;;;;;;;7.65;2.22;;;;;;;9.90;58.89;101812.94;5106409;27;20024;-43
2023/03/15 07:07:34;;;;;;;9.55;2.45;;;;;;;10.18;57.95;101817.34;5109947;28;20042;-44
2023/03/15 07:09:59;;;;;;;6.70;2.30;;;;;;;9.96;56.10;101814.84;5109901;28;20047;-43
2023/03/15 07:12:24;;;;;;;12.57;2.40;;;;;;;10.36;56.09;101820.47;5104563;28;20041;-43
2023/03/15 07:14:50;;;;;;;8.13;1.63;;;;;;;10.65;55.39;101820.41;5106486;27;20063;-43
2023/03/15 07:17:15;;;;;;;6.32;1.80;;;;;;;10.78;53.72;101830.34;5101425;28;20038;-43
2023/03/15 07:19:41;;;;;;;8.32;1.80;;;;;;;11.08;52.37;101823.34;5105063;27;20035;-45
2023/03/15 07:22:06;;;;;;;5.60;1.90;;;;;;;11.23;51.35;101825.47;5102623;27;20038;-44
2023/03/15 07:24:31;;;;;;;7.00;1.80;;;;;;;11.45;51.62;101824.28;5105982;28;20043;-46
2023/03/15 07:26:56;;;;;;;6.88;1.70;;;;;;;11.40;50.85;101827.66;5107038;27;20029;-48
2023/03/15 07:29:23;;;;;;;6.68;1.60;;;;;;;10.85;51.46;101835.78;5101053;27;20057;-43
2023/03/15 07:31:49;;;;;;;8.88;1.80;;;;;;;10.16;53.36;101832.91;5105178;27;20035;-43
2023/03/15 07:34:15;;;;;;;5.80;1.60;;;;;;;9.97;54.65;101833.16;5101532;28;20081;-42
2023/03/15 07:36:40;;;;;;;9.55;1.73;;;;;;;9.29;56.10;101838.72;5105631;27;20031;-43
2023/03/15 07:39:05;;;;;;;6.57;1.77;;;;;;;8.57;57.98;101842.22;5101742;27;20035;-43
2023/03/15 07:41:31;;;;;;;5.47;1.80;;;;;;;8.34;60.17;101852.66;5105902;27;20073;-44
2023/03/15 07:43:56;;;;;;;7.15;1.85;;;;;;;8.21;60.57;101852.09;5105021;27;20032;-43
2023/03/15 07:46:21;;;;;;;7.75;1.98;;;;;;;7.94;61.43;101860.56;5100628;27;20038;-44
2023/03/15 07:48:47;;;;;;;10.32;1.88;;;;;;;8.05;61.90;101867.06;5104721;27;20108;-43
2023/03/15 07:51:12;;;;;;;6.70;1.90;;;;;;;8.05;62.05;101867.06;5102520;27;20527;-44
2023/03/15 07:53:37;;;;;;;10.68;2.00;;;;;;;8.07;61.73;101875.81;5105777;27;20027;-43
2023/03/15 07:56:04;;;;;;;8.15;1.88;;;;;;;8.12;61.33;101879.47;5102286;27;20055;-44
2023/03/15 07:58:29;;;;;;;10.10;2.10;;;;;;;7.90;61.96;101875.97;5106500;28;20043;-43
2023/03/15 08:00:56;;;;;;;6.47;1.88;;;;;;;7.90;61.67;101879.44;5105225;27;20036;-47
2023/03/15 08:03:23;;;;;;;10.05;1.75;;;;;;;8.08;61.29;101880.19;5102583;28;20092;-44
2023/03/15 08:05:49;;;;;;;8.55;1.95;;;;;;;7.84;62.12;101892.19;5105387;27;20063;-44
2023/03/15 08:08:14;;;;;;;9.02;1.98;;;;;;;7.70;63.00;101896.81;5098711;28;20040;-42
2023/03/15 08:10:39;;;;;;;6.85;1.80;;;;;;;7.84;62.67;101897.38;5104818;28;20416;-45
2023/03/15 08:13:05;;;;;;;7.40;2.00;;;;;;;8.04;62.83;101909.47;5102310;28;20032;-47
2023/03/15 08:15:30;;;;;;;9.77;2.08;;;;;;;8.29;62.06;101900.91;5105377;28;20028;-44
2023/03/15 08:17:55;;;;;;;7.80;1.88;;;;;;;8.36;61.86;101907.25;5104464;28;20435;-44
2023/03/15 08:20:21;;;;;;;8.55;1.70;;;;;;;7.97;61.91;101910.03;5101266;28;20114;-44
2023/03/15 08:22:47;;;;;;;6.88;1.60;;;;;;;8.36;61.50;101913.34;5108852;28;20538;-42
2023/03/15 08:25:16;;;;;;;6.43;1.50;;;;;;;8.41;61.24;101919.63;5105552;27;20028;-44
2023/03/15 08:27:41;;;;;;;7.13;1.60;;;;;;;8.03;60.54;101918.06;5105443;28;20044;-44
2023/03/15 08:30:10;;;;;;;6.63;1.55;;;;;;;8.21;60.36;101922.22;5101499;28;20031;-44
2023/03/15 08:32:35;;;;;;;11.65;1.40;;;;;;;8.46;60.10;101920.69;5105046;28;20045;-43
2023/03/15 08:35:00;;;;;;;8.50;1.75;;;;;;;7.80;60.81;101925.75;5102002;28;20027;-43
2023/03/15 08:37:26;;;;;;;9.77;1.67;;;;;;;7.94;61.22;101916.78;5104348;28;20038;-42
2023/03/15 08:39:59;;;;;;;10.07;1.58;;;;;;;7.96;60.69;101923.84;5104218;28;20085;-44
2023/03/15 08:42:26;;;;;;;9.10;2.07;;;;;;;8.18;61.13;101916.88;5100084;27;20032;-46
2023/03/15 08:44:51;;;;;;;6.78;1.60;;;;;;;8.05;59.87;101918.13;5103425;28;20035;-45
2023/03/15 08:47:16;;;;;;;7.47;1.30;;;;;;;8.17;60.27;101918.63;5102057;28;20104;-46
2023/03/15 08:49:42;;;;;;;9.43;1.55;;;;;;;8.29;60.18;101920.81;5105169;27;20081;-43
2023/03/15 08:52:07;;;;;;;9.13;1.60;;;;;;;8.67;59.46;101917.97;5101015;28;20137;-47
2023/03/15 08:54:32;;;;;;;9.18;1.95;;;;;;;8.69;59.65;101925.84;5104144;28;20023;-44
2023/03/15 08:56:58;;;;;;;7.25;1.83;;;;;;;8.84;59.59;101931.63;5105333;28;20031;-43
2023/03/15 08:59:23;;;;;;;6.15;1.45;;;;;;;9.03;59.17;101927.97;5100536;28;20039;-48
2023/03/15 09:01:48;;;;;;;10.25;1.60;;;;;;;8.86;58.18;101928.25;5103514;28;20105;-44
2023/03/15 09:04:13;;;;;;;5.82;1.50;;;;;;;9.11;58.22;101923.94;5099407;28;20046;-47
2023/03/15 09:06:39;;;;;;;6.72;1.45;;;;;;;9.28;58.47;101920.22;5103090;28;20031;-42
2023/03/15 09:09:05;;;;;;;8.38;1.60;;;;;;;9.24;57.67;101920.94;5100181;28;20035;-43
2023/03/15 09:11:30;;;;;;;6.65;1.40;;;;;;;9.50;58.09;101912.34;5104346;28;20024;-43
2023/03/15 09:13:56;;;;;;;8.23;1.30;;;;;;;9.14;56.50;101908.47;5104455;28;20028;-48
2023/03/15 09:16:21;;;;;;;10.77;1.67;;;;;;;9.05;55.70;101910.72;5097938;28;20185;-42
2023/03/15 09:18:46;;;;;;;7.00;1.40;;;;;;;9.22;55.68;101905.28;5104254;27;20131;-45
2023/03/15 09:21:12;;;;;;;9.48;1.55;;;;;;;8.85;54.73;101907.38;5100478;27;20111;-43
2023/03/15 09:23:37;;;;;;;6.95;1.30;;;;;;;8.76;54.30;101907.06;5103725;27;20489;-43
2023/03/15 09:26:02;;;;;;;6.95;1.00;;;;;;;9.14;52.46;101908.47;5103148;27;20028;-45
2023/03/15 09:28:28;;;;;;;5.22;1.10;;;;;;;9.44;51.71;101904.31;5100475;27;20035;-46
2023/03/15 09:30:53;;;;;;;9.30;1.50;;;;;;;9.43;54.35;101902.53;5103896;27;20061;-44
2023/03/15 09:33:21;;;;;;;7.38;1.15;;;;;;;9.76;54.31;101906.25;5100195;27;20031;-45
2023/03/15 09:35:50;;;;;;;8.50;1.30;;;;;;;9.92;54.50;101909.38;5102779;27;20091;-43
2023/03/15 09:38:16;;;;;;;9.65;1.40;;;;;;;10.17;54.01;101914.59;5099786;28;20031;-45
2023/03/15 09:40:46;;;;;;;8.00;1.20;;;;;;;10.22;52.51;101918.22;5103021;28;20046;-48
2023/03/15 09:43:31;;;;;;;5.70;1.63;;;;;;;10.16;50.86;101912.78;5099056;28;20039;-44
2023/03/15 09:46:18;;;;;;;7.80;1.35;;;;;;;10.38;49.83;101923.03;5103894;28;20055;-44
2023/03/15 09:48:59;;;;;;;7.47;1.33;;;;;;;10.19;51.37;101912.88;5097820;28;20048;-45
2023/03/15 09:51:34;;;;;;;5.50;1.15;;;;;;;10.36;51.04;101911.72;5099526;28;20046;-41
2023/03/15 09:54:09;;;;;;;5.38;1.30;;;;;;;10.54;51.31;101916.59;5110556;28;20092;-42
2023/03/15 09:56:39;;;;;;;8.80;1.50;;;;;;;10.41;50.61;101917.94;5109893;27;20057;-42
2023/03/15 09:59:05;;;;;;;7.90;1.23;;;;;;;10.49;50.44;101921.66;5108923;28;20023;-44
2023/03/15 10:01:36;;;;;;;6.13;1.23;;;;;;;10.43;48.90;101925.81;5107630;27;20085;-42
2023/03/15 10:04:27;;;;;;;5.60;1.20;;;;;;;10.55;50.53;101926.19;5102606;27;20027;-48
2023/03/15 10:06:55;;;;;;;7.53;1.48;;;;;;;10.66;48.05;101926.50;5106420;27;20477;-43
2023/03/15 10:09:25;;;;;;;3.30;1.10;;;;;;;10.57;47.17;101930.59;5107209;27;20119;-46
2023/03/15 10:11:53;;;;;;;5.20;1.00;;;;;;;10.62;46.34;101930.72;5103681;27;20439;-45
2023/03/15 10:14:24;;;;;;;4.75;0.88;;;;;;;10.67;45.44;101923.06;5104208;27;20036;-45
2023/03/15 10:16:51;;;;;;;5.13;1.00;;;;;;;10.77;43.36;101925.09;5106734;28;20056;-42
2023/03/15 10:19:34;;;;;;;5.78;0.98;;;;;;;10.22;42.58;101933.84;5110799;27;20031;-44
2023/03/15 10:22:12;;;;;;;7.95;0.95;;;;;;;9.88;42.91;101944.84;5103058;27;20028;-46
2023/03/15 10:25:01;;;;;;;7.45;1.05;;;;;;;10.10;40.83;101951.66;5109351;27;20052;-45
2023/03/15 10:27:40;;;;;;;4.85;0.90;;;;;;;10.41;41.80;101954.44;5109735;27;20068;-42
2023/03/15 10:30:16;;;;;;;3.78;0.93;;;;;;;10.24;41.88;101952.16;5107761;27;20035;-42
2023/03/15 10:32:46;;;;;;;4.25;1.00;;;;;;;10.52;43.76;101954.75;5108877;27;20044;-43
2023/03/15 10:35:17;;;;;;;5.72;1.00;;;;;;;10.72;44.54;101964.09;5107344;27;20028;-45
2023/03/15 10:37:43;;;;;;;4.03;0.85;;;;;;;10.78;43.79;101959.06;5111731;27;20058;-44
2023/03/15 10:40:15;;;;;;;6.25;1.10;;;;;;;10.02;43.22;101972.25;5108134;27;20028;-43
2023/03/15 10:42:45;;;;;;;5.03;1.02;;;;;;;10.01;45.38;101973.06;5110206;27;20509;-43
2023/03/15 10:45:23;;;;;;;3.30;0.90;;;;;;;9.76;44.67;101971.38;5103494;27;20032;-43
2023/03/15 10:47:49;;;;;;;8.20;1.00;;;;;;;10.08;44.39;101964.63;5106146;27;20063;-47
2023/03/15 10:50:26;;;;;;;3.25;0.85;;;;;;;10.17;43.14;101969.31;5101874;27;20027;-43
2023/03/15 10:52:55;;;;;;;5.05;1.10;;;;;;;10.04;44.13;101965.38;5105454;27;20042;-43
2023/03/15 10:55:28;;;;;;;6.97;1.30;;;;;;;10.24;44.05;101971.28;5101833;27;20038;-45
2023/03/15 10:57:56;;;;;;;4.18;0.90;;;;;;;9.86;41.88;101969.09;5105568;27;20028;-49
2023/03/15 11:00:25;;;;;;;4.43;1.13;;;;;;;10.30;41.25;101967.97;5106263;27;20031;-43
2023/03/15 11:03:15;;;;;;;6.50;1.27;;;;;;;10.08;43.33;101982.88;5103130;27;20058;-45
2023/03/15 11:05:47;;;;;;;9.05;1.38;;;;;;;10.43;44.10;101991.00;5103008;27;20049;-46
2023/03/15 11:08:18;;;;;;;8.45;1.77;;;;;;;10.44;43.25;101991.03;5102943;27;20032;-42
2023/03/15 11:10:46;;;;;;;11.35;1.50;;;;;;;10.09;44.21;101989.84;5106579;27;20039;-43
2023/03/15 11:13:26;;;;;;;10.30;1.90;;;;;;;9.67;44.02;101998.81;5107906;27;20077;-45
2023/03/15 11:16:11;;;;;;;8.00;1.70;;;;;;;10.25;44.46;101992.97;5103421;27;20650;-41
2023/03/15 11:19:15;;;;;;;5.47;1.33;;;;;;;10.74;45.03;101990.19;5095522;27;20035;-42
2023/03/15 11:21:41;;;;;;;6.30;1.52;;;;;;;11.12;42.73;101984.38;5059182;28;20037;-45
2023/03/15 11:24:19;;;;;;;5.57;1.50;;;;;;;11.12;40.21;101976.56;5061981;28;20029;-40
2023/03/15 11:26:50;;;;;;;8.05;1.40;;;;;;;11.11;40.11;101979.13;5072412;28;20028;-42
2023/03/15 11:29:30;;;;;;;4.90;1.52;;;;;;;11.27;38.67;101981.34;5094676;27;20419;-42
2023/03/15 11:31:59;;;;;;;7.55;1.70;;;;;;;11.20;39.58;101985.50;5112555;28;20032;-43
2023/03/15 11:34:36;;;;;;;6.05;2.05;;;;;;;11.24;41.87;101979.53;5111235;27;20027;-48